createdAt,value
2018-09-27T00:02:12.563Z,60.30
2018-09-27T00:04:41.911Z,60.30
2018-09-27T00:07:11.240Z,60.10
2018-09-27T00:09:40.599Z,60.40
2018-09-27T00:12:09.953Z,60.40
2018-09-27T00:14:39.316Z,60.30
2018-09-27T00:17:08.707Z,60.30
2018-09-27T00:19:38.051Z,60.50
2018-09-27T00:22:07.455Z,60.30
2018-09-27T00:24:36.813Z,60.50
2018-09-27T00:27:06.248Z,60.40
2018-09-27T00:29:35.640Z,60.50
2018-09-27T00:32:05.010Z,60.20
2018-09-27T00:34:34.328Z,60.40
2018-09-27T00:37:03.724Z,60.20
2018-09-27T00:39:33.090Z,60.30
2018-09-27T00:42:02.483Z,59.80
2018-09-27T00:44:31.869Z,60.00
2018-09-27T00:47:01.273Z,60.20
2018-09-27T00:49:30.649Z,60.00
2018-09-27T00:52:00.020Z,59.80
2018-09-27T00:54:29.430Z,59.80
2018-09-27T00:56:58.761Z,59.90
2018-09-27T00:59:28.348Z,59.80
2018-09-27T01:01:57.707Z,60.10
2018-09-27T01:04:27.208Z,59.70
2018-09-27T01:06:56.565Z,59.80
2018-09-27T01:09:25.968Z,59.90
2018-09-27T01:11:55.436Z,59.90
2018-09-27T01:14:24.810Z,59.90
2018-09-27T01:16:54.183Z,60.80
2018-09-27T01:19:23.624Z,60.00
2018-09-27T01:21:52.975Z,59.90
2018-09-27T01:24:22.412Z,60.00
2018-09-27T01:26:51.794Z,59.90
2018-09-27T01:29:21.130Z,60.00
2018-09-27T01:31:50.534Z,59.90
2018-09-27T01:34:19.937Z,60.00
2018-09-27T01:36:49.299Z,60.10
2018-09-27T01:39:18.661Z,60.30
2018-09-27T01:41:48.007Z,60.60
2018-09-27T01:44:17.356Z,60.70
2018-09-27T01:46:46.783Z,60.70
2018-09-27T01:49:16.087Z,60.90
2018-09-27T01:51:45.415Z,61.10
2018-09-27T01:54:14.797Z,61.20
2018-09-27T01:56:44.151Z,61.30
2018-09-27T01:59:13.552Z,61.30
2018-09-27T02:01:43.048Z,61.60
2018-09-27T02:04:12.472Z,61.70
2018-09-27T02:06:41.831Z,61.90
2018-09-27T02:09:11.311Z,62.00
2018-09-27T02:11:40.681Z,62.20
2018-09-27T02:14:10.057Z,62.30
2018-09-27T02:16:39.635Z,62.40
2018-09-27T02:19:09.004Z,62.50
2018-09-27T02:21:38.402Z,63.50
2018-09-27T02:24:07.852Z,69.90
2018-09-27T02:26:37.243Z,75.60
2018-09-27T02:29:06.638Z,77.50
2018-09-27T02:31:36.102Z,77.90
2018-09-27T02:34:05.685Z,80.90
2018-09-27T02:36:35.023Z,80.80
2018-09-27T02:39:06.546Z,82.00
2018-09-27T02:41:35.934Z,81.50
2018-09-27T02:44:05.420Z,81.20
2018-09-27T02:46:34.879Z,82.00
2018-09-27T02:49:04.300Z,81.60
2018-09-27T02:51:33.679Z,80.80
2018-09-27T02:54:03.016Z,79.80
2018-09-27T02:56:32.392Z,79.40
2018-09-27T02:59:01.777Z,78.20
2018-09-27T03:01:31.147Z,78.50
2018-09-27T03:04:00.471Z,78.70
2018-09-27T03:06:29.788Z,76.70
2018-09-27T03:08:59.131Z,75.80
2018-09-27T03:11:28.459Z,75.80
2018-09-27T03:13:57.920Z,75.00
2018-09-27T03:16:27.288Z,74.70
2018-09-27T03:18:59.556Z,74.60
2018-09-27T03:21:28.942Z,74.80
2018-09-27T03:23:58.269Z,74.00
2018-09-27T03:26:27.601Z,73.90
2018-09-27T03:28:57.079Z,73.50
2018-09-27T03:31:26.424Z,73.50
2018-09-27T03:33:55.832Z,73.40
2018-09-27T03:36:25.164Z,72.80
2018-09-27T03:38:54.576Z,71.90
2018-09-27T03:41:23.895Z,71.90
2018-09-27T03:43:53.291Z,72.20
2018-09-27T03:46:22.674Z,72.30
2018-09-27T03:48:52.065Z,72.40
2018-09-27T03:51:21.415Z,71.50
2018-09-27T03:53:50.774Z,71.40
2018-09-27T03:56:20.066Z,71.20
2018-09-27T03:58:49.424Z,69.80
2018-09-27T04:01:18.811Z,70.20
2018-09-27T04:03:48.243Z,70.00
2018-09-27T04:06:18.308Z,70.20
2018-09-27T04:08:47.860Z,69.70
2018-09-27T04:11:17.319Z,70.00
2018-09-27T04:13:47.176Z,70.70
2018-09-27T04:16:16.801Z,71.70
2018-09-27T04:18:46.895Z,72.10
2018-09-27T04:21:16.355Z,71.80
2018-09-27T04:23:45.820Z,71.80
2018-09-27T04:26:15.249Z,71.00
2018-09-27T04:28:44.684Z,71.20
2018-09-27T04:31:14.104Z,70.90
2018-09-27T04:33:43.523Z,70.80
2018-09-27T04:36:12.902Z,70.90
2018-09-27T04:38:42.234Z,70.60
2018-09-27T04:41:11.580Z,70.00
2018-09-27T04:43:40.954Z,69.90
2018-09-27T04:46:10.326Z,69.80
2018-09-27T04:48:39.676Z,68.80
2018-09-27T04:51:09.025Z,68.70
2018-09-27T04:53:38.351Z,69.00
2018-09-27T04:56:07.787Z,68.90
2018-09-27T04:58:37.184Z,68.80
2018-09-27T05:01:06.628Z,68.20
2018-09-27T05:03:35.965Z,68.40
2018-09-27T05:06:05.347Z,68.20
2018-09-27T05:08:34.745Z,68.00
2018-09-27T05:11:04.080Z,67.60
2018-09-27T05:13:33.536Z,67.90
2018-09-27T05:16:02.860Z,67.80
2018-09-27T05:18:32.242Z,67.40
2018-09-27T05:21:01.646Z,67.60
2018-09-27T05:23:30.976Z,67.30
2018-09-27T05:26:00.336Z,67.30
2018-09-27T05:28:29.825Z,67.30
2018-09-27T05:30:59.375Z,67.60
2018-09-27T05:33:28.736Z,67.30
2018-09-27T05:35:58.099Z,67.20
2018-09-27T05:38:27.467Z,66.80
2018-09-27T05:40:56.842Z,67.20
2018-09-27T05:43:26.289Z,66.90
2018-09-27T05:45:55.672Z,67.50
2018-09-27T05:48:25.042Z,66.80
2018-09-27T05:50:54.437Z,66.40
2018-09-27T05:53:26.116Z,66.50
2018-09-27T05:55:58.459Z,66.30
2018-09-27T05:58:27.923Z,66.30
2018-09-27T06:00:57.365Z,66.60
2018-09-27T06:03:26.727Z,66.50
2018-09-27T06:05:56.157Z,66.40
2018-09-27T06:08:25.512Z,66.50
2018-09-27T06:10:54.893Z,66.50
2018-09-27T06:13:24.305Z,66.80
2018-09-27T06:15:53.750Z,66.40
2018-09-27T06:18:23.157Z,66.00
2018-09-27T06:20:52.524Z,65.50
2018-09-27T06:23:21.949Z,65.60
2018-09-27T06:25:51.286Z,65.20
2018-09-27T06:28:20.635Z,65.20
2018-09-27T06:30:50.171Z,64.70
2018-09-27T06:33:19.579Z,64.30
2018-09-27T06:35:48.931Z,63.50
2018-09-27T06:38:19.055Z,63.40
2018-09-27T06:40:48.408Z,63.30
2018-09-27T06:43:17.758Z,63.40
2018-09-27T06:45:47.103Z,63.00
2018-09-27T06:48:16.476Z,62.90
2018-09-27T06:50:45.880Z,62.60
2018-09-27T06:53:15.224Z,62.50
2018-09-27T06:55:44.694Z,62.20
2018-09-27T06:58:14.075Z,61.90
2018-09-27T07:00:43.495Z,61.60
2018-09-27T07:03:12.878Z,61.30
2018-09-27T07:05:42.183Z,61.00
2018-09-27T07:08:11.596Z,60.60
2018-09-27T07:10:40.916Z,60.60
2018-09-27T07:13:10.310Z,60.60
2018-09-27T07:15:39.795Z,59.90
2018-09-27T07:18:09.123Z,59.80
2018-09-27T07:20:38.564Z,59.50
2018-09-27T07:23:08.047Z,59.40
2018-09-27T07:25:37.402Z,59.00
2018-09-27T07:28:06.805Z,58.80
2018-09-27T07:30:36.200Z,58.70
2018-09-27T07:33:05.543Z,58.70
2018-09-27T07:35:34.873Z,58.60
2018-09-27T07:38:04.221Z,58.30
2018-09-27T07:40:33.608Z,58.30
2018-09-27T07:43:02.972Z,58.00
2018-09-27T07:45:32.360Z,58.00
2018-09-27T07:48:01.733Z,58.20
2018-09-27T07:50:31.120Z,58.10
2018-09-27T07:53:00.504Z,57.80
2018-09-27T07:55:29.883Z,57.90
2018-09-27T07:57:59.285Z,58.30
2018-09-27T08:00:28.732Z,58.10
2018-09-27T08:02:58.084Z,58.10
2018-09-27T08:05:27.475Z,58.10
2018-09-27T08:07:56.948Z,57.90
2018-09-27T08:10:26.338Z,58.10
2018-09-27T08:12:55.710Z,57.80
2018-09-27T08:15:25.138Z,57.70
2018-09-27T08:17:54.488Z,57.20
2018-09-27T08:20:23.904Z,57.90
2018-09-27T08:22:53.266Z,57.90
2018-09-27T08:25:22.924Z,58.10
2018-09-27T08:27:52.404Z,57.90
2018-09-27T08:30:22.072Z,58.00
2018-09-27T08:32:51.452Z,58.00
2018-09-27T08:35:20.847Z,58.30
2018-09-27T08:37:50.192Z,58.50
2018-09-27T08:40:19.651Z,58.60
2018-09-27T08:42:49.196Z,58.70
2018-09-27T08:45:18.984Z,58.60
2018-09-27T08:47:48.161Z,57.90
2018-09-27T08:50:17.552Z,57.80
2018-09-27T08:52:47.009Z,57.70
2018-09-27T08:55:16.406Z,57.80
2018-09-27T08:57:45.828Z,57.50
2018-09-27T09:00:15.199Z,57.60
2018-09-27T09:02:44.572Z,57.20
2018-09-27T09:05:13.917Z,57.10
2018-09-27T09:07:43.383Z,57.00
2018-09-27T09:10:12.707Z,57.10
2018-09-27T09:12:42.084Z,57.00
2018-09-27T09:15:11.423Z,57.00
2018-09-27T09:17:40.921Z,57.00
2018-09-27T09:20:10.449Z,56.50
2018-09-27T09:22:39.892Z,56.50
2018-09-27T09:25:09.336Z,56.70
2018-09-27T09:27:38.752Z,56.80
2018-09-27T09:30:08.850Z,56.40
2018-09-27T09:32:38.207Z,56.20
2018-09-27T09:35:07.576Z,55.50
2018-09-27T09:37:36.952Z,55.40
2018-09-27T09:40:06.524Z,55.20
2018-09-27T09:42:35.916Z,55.30
2018-09-27T09:45:05.359Z,55.40
2018-09-27T09:47:34.817Z,55.60
2018-09-27T09:50:04.379Z,55.00
2018-09-27T09:52:33.707Z,55.20
2018-09-27T09:55:03.080Z,55.00
2018-09-27T09:57:32.448Z,55.10
2018-09-27T10:00:01.785Z,55.00
2018-09-27T10:02:31.179Z,55.30
2018-09-27T10:05:00.528Z,55.20
2018-09-27T10:07:30.017Z,54.50
2018-09-27T10:09:59.456Z,55.00
2018-09-27T10:12:28.812Z,54.20
2018-09-27T10:14:58.179Z,54.50
2018-09-27T10:17:27.552Z,53.20
2018-09-27T10:19:56.944Z,53.70
2018-09-27T10:22:26.470Z,53.50
2018-09-27T10:24:55.932Z,53.30
2018-09-27T10:27:25.421Z,51.90
2018-09-27T10:29:54.852Z,51.80
2018-09-27T10:32:24.244Z,51.10
2018-09-27T10:35:00.180Z,51.00
2018-09-27T10:37:29.540Z,50.50
2018-09-27T10:39:58.952Z,49.90
2018-09-27T10:42:28.295Z,49.70
2018-09-27T10:44:57.746Z,49.70
2018-09-27T10:47:27.175Z,49.70
2018-09-27T10:49:56.647Z,50.20
2018-09-27T10:52:26.076Z,50.00
2018-09-27T10:54:55.424Z,48.80
2018-09-27T10:57:24.833Z,48.60
2018-09-27T10:59:54.208Z,48.70
2018-09-27T11:02:23.859Z,49.00
2018-09-27T11:04:53.275Z,49.40
2018-09-27T11:07:22.704Z,48.70
2018-09-27T11:09:52.088Z,48.40
2018-09-27T11:12:21.451Z,48.60
2018-09-27T11:14:50.757Z,48.60
2018-09-27T11:17:20.100Z,48.50
2018-09-27T11:19:49.445Z,48.30
2018-09-27T11:22:18.781Z,48.00
2018-09-27T11:24:48.129Z,47.60
2018-09-27T11:27:17.459Z,48.20
2018-09-27T11:29:51.928Z,47.70
2018-09-27T11:32:26.456Z,47.70
2018-09-27T11:34:55.900Z,46.90
2018-09-27T11:37:25.823Z,46.80
2018-09-27T11:39:55.213Z,44.70
2018-09-27T11:42:24.919Z,45.70
2018-09-27T11:44:54.308Z,45.30
2018-09-27T11:47:23.692Z,44.80
2018-09-27T11:49:53.165Z,45.00
2018-09-27T11:52:22.475Z,44.00
2018-09-27T11:54:51.806Z,45.40
2018-09-27T11:57:21.201Z,44.20
2018-09-27T11:59:50.532Z,45.20
2018-09-27T12:02:19.866Z,44.90
2018-09-27T12:04:49.220Z,44.70
2018-09-27T12:07:18.633Z,44.90
2018-09-27T12:09:48.000Z,44.50
2018-09-27T12:12:18.652Z,44.00
2018-09-27T12:14:48.010Z,45.10
2018-09-27T12:17:17.480Z,44.70
2018-09-27T12:19:46.979Z,44.40
2018-09-27T12:22:16.342Z,45.20
2018-09-27T12:24:45.900Z,45.20
2018-09-27T12:27:15.425Z,44.10
2018-09-27T12:29:44.771Z,43.80
2018-09-27T12:32:14.200Z,44.20
2018-09-27T12:34:43.683Z,43.50
2018-09-27T12:37:13.105Z,44.80
2018-09-27T12:39:42.607Z,43.20
2018-09-27T12:42:12.264Z,43.60
2018-09-27T12:44:41.464Z,44.50
2018-09-27T12:47:10.846Z,44.50
2018-09-27T12:49:40.294Z,44.10
2018-09-27T12:52:09.947Z,44.70
2018-09-27T12:54:39.384Z,44.90
2018-09-27T12:57:08.866Z,45.00
2018-09-27T12:59:38.368Z,45.50
2018-09-27T13:02:07.934Z,45.20
2018-09-27T13:04:37.233Z,45.70
2018-09-27T13:07:06.863Z,45.40
2018-09-27T13:09:36.351Z,46.10
2018-09-27T13:12:05.824Z,45.70
2018-09-27T13:14:35.489Z,46.30
2018-09-27T13:17:05.598Z,46.00
2018-09-27T13:19:35.107Z,46.20
2018-09-27T13:22:04.547Z,46.70
2018-09-27T13:24:34.072Z,46.90
2018-09-27T13:27:03.586Z,46.30
2018-09-27T13:29:33.019Z,45.70
2018-09-27T13:32:02.502Z,45.60
2018-09-27T13:34:32.525Z,45.70
2018-09-27T13:37:02.155Z,46.50
2018-09-27T13:39:31.607Z,46.70
2018-09-27T13:42:01.248Z,46.60
2018-09-27T13:44:31.091Z,46.00
2018-09-27T13:47:00.809Z,46.40
2018-09-27T13:49:41.566Z,46.40
2018-09-27T13:52:11.314Z,45.90
2018-09-27T13:54:40.737Z,46.00
2018-09-27T13:57:10.263Z,46.00
2018-09-27T13:59:39.713Z,46.80
2018-09-27T14:04:50.736Z,47.00
2018-09-27T14:07:20.386Z,46.80
2018-09-27T14:09:50.165Z,46.90
2018-09-27T14:12:19.568Z,47.30
2018-09-27T14:14:48.973Z,46.90
2018-09-27T14:17:18.337Z,47.10
2018-09-27T14:19:47.756Z,47.70
2018-09-27T14:22:17.176Z,48.00
2018-09-27T14:24:46.635Z,48.20
2018-09-27T14:27:16.021Z,48.40
2018-09-27T14:29:45.420Z,48.70
2018-09-27T14:32:14.793Z,48.30
2018-09-27T14:34:44.228Z,48.60
2018-09-27T14:37:13.597Z,48.50
2018-09-27T14:39:42.978Z,48.30
2018-09-27T14:42:12.354Z,48.20
2018-09-27T14:44:41.737Z,47.90
2018-09-27T14:47:11.100Z,48.20
2018-09-27T14:49:40.448Z,48.70
2018-09-27T14:52:09.914Z,48.20
2018-09-27T14:54:39.263Z,48.50
2018-09-27T14:57:08.959Z,48.70
2018-09-27T14:59:38.407Z,49.20
2018-09-27T15:02:08.063Z,49.00
2018-09-27T15:04:37.415Z,49.10
2018-09-27T15:07:06.855Z,49.70
2018-09-27T15:09:36.295Z,50.20
2018-09-27T15:12:05.746Z,50.00
2018-09-27T15:14:35.226Z,50.30
2018-09-27T15:17:04.584Z,50.60
2018-09-27T15:19:33.947Z,50.70
2018-09-27T15:22:03.356Z,51.10
2018-09-27T15:24:32.765Z,50.70
2018-09-27T15:27:02.155Z,50.70
2018-09-27T15:29:31.546Z,50.70
2018-09-27T15:32:00.906Z,51.40
2018-09-27T15:34:30.237Z,50.80
2018-09-27T15:36:59.609Z,50.90
2018-09-27T15:39:28.983Z,51.30
2018-09-27T15:41:58.327Z,51.40
2018-09-27T15:44:27.855Z,51.70
2018-09-27T15:46:57.301Z,52.10
2018-09-27T15:49:26.691Z,52.30
2018-09-27T15:51:56.068Z,52.70
2018-09-27T15:54:25.472Z,53.00
2018-09-27T15:56:54.907Z,52.90
2018-09-27T15:59:24.324Z,52.70
2018-09-27T16:01:53.683Z,52.50
2018-09-27T16:04:23.234Z,52.80
2018-09-27T16:06:52.634Z,53.50
2018-09-27T16:09:21.995Z,53.90
2018-09-27T16:11:51.369Z,53.70
2018-09-27T16:14:21.107Z,54.10
2018-09-27T16:16:50.548Z,54.50
2018-09-27T16:19:20.031Z,55.40
2018-09-27T16:21:51.755Z,54.80
2018-09-27T16:24:22.250Z,54.70
2018-09-27T16:26:51.717Z,55.00
2018-09-27T16:29:21.199Z,54.80
2018-09-27T16:31:50.779Z,55.10
2018-09-27T16:34:20.271Z,55.20
2018-09-27T16:36:49.987Z,55.40
2018-09-27T16:39:19.507Z,55.50
2018-09-27T16:41:49.060Z,55.00
2018-09-27T16:44:18.573Z,55.60
2018-09-27T16:46:48.437Z,55.60
2018-09-27T16:49:17.985Z,55.70
2018-09-27T16:51:47.468Z,55.80
2018-09-27T16:54:17.003Z,56.00
2018-09-27T16:56:46.616Z,56.10
2018-09-27T16:59:16.242Z,55.60
2018-09-27T17:01:45.944Z,55.50
2018-09-27T17:04:15.509Z,55.50
2018-09-27T17:06:45.125Z,55.60
2018-09-27T17:09:14.774Z,56.20
2018-09-27T17:11:44.481Z,56.70
2018-09-27T17:14:14.069Z,56.80
2018-09-27T17:16:43.614Z,56.60
2018-09-27T17:19:12.992Z,56.40
2018-09-27T17:21:42.345Z,56.50
2018-09-27T17:24:11.769Z,56.80
2018-09-27T17:26:41.172Z,57.10
2018-09-27T17:29:10.598Z,56.80
2018-09-27T17:31:40.024Z,56.10
2018-09-27T17:34:09.504Z,56.20
2018-09-27T17:36:38.875Z,56.30
2018-09-27T17:39:09.152Z,56.70
2018-09-27T17:41:38.704Z,57.10
2018-09-27T17:44:08.392Z,56.10
2018-09-27T17:46:38.172Z,56.80
2018-09-27T17:49:07.579Z,57.00
2018-09-27T17:51:37.028Z,57.10
2018-09-27T17:54:06.472Z,57.70
2018-09-27T17:56:35.948Z,57.00
2018-09-27T17:59:05.390Z,57.30
2018-09-27T18:01:34.776Z,57.30
2018-09-27T18:04:04.220Z,57.30
2018-09-27T18:06:33.622Z,57.10
2018-09-27T18:09:03.076Z,56.90
2018-09-27T18:11:32.497Z,57.00
2018-09-27T18:14:01.895Z,56.80
2018-09-27T18:16:31.369Z,56.70
2018-09-27T18:19:00.884Z,56.80
2018-09-27T18:21:30.312Z,56.50
2018-09-27T18:23:59.784Z,56.80
2018-09-27T18:27:33.269Z,56.40
2018-09-27T18:30:03.258Z,56.50
2018-09-27T18:32:33.140Z,56.30
2018-09-27T18:35:03.008Z,56.30
2018-09-27T18:37:32.829Z,56.30
2018-09-27T18:40:02.813Z,56.30
2018-09-27T18:42:32.604Z,56.50
2018-09-27T18:45:02.268Z,56.50
2018-09-27T18:47:31.799Z,56.70
2018-09-27T18:50:01.311Z,56.70
2018-09-27T18:52:30.752Z,56.00
2018-09-27T18:55:00.314Z,55.50
2018-09-27T18:57:29.895Z,56.10
2018-09-27T18:59:59.380Z,56.00
2018-09-27T19:02:29.166Z,56.20
2018-09-27T19:05:05.358Z,56.10
2018-09-27T19:07:34.809Z,56.00
2018-09-27T19:10:04.369Z,56.40
2018-09-27T19:12:33.883Z,56.50
2018-09-27T19:15:03.330Z,56.30
2018-09-27T19:17:32.802Z,56.50
2018-09-27T19:20:02.290Z,57.10
2018-09-27T19:22:31.729Z,56.70
2018-09-27T19:25:01.216Z,56.80
2018-09-27T19:27:30.727Z,57.00
2018-09-27T19:30:00.378Z,56.80
2018-09-27T19:32:29.861Z,57.00
2018-09-27T19:34:59.372Z,56.90
2018-09-27T19:37:28.825Z,56.80
2018-09-27T19:39:58.332Z,57.10
2018-09-27T19:42:27.779Z,57.30
2018-09-27T19:44:57.419Z,57.30
2018-09-27T19:47:26.964Z,57.70
2018-09-27T19:49:56.473Z,57.70
2018-09-27T19:52:25.923Z,58.60
2018-09-27T19:54:55.516Z,58.10
2018-09-27T19:57:25.023Z,58.30
2018-09-27T19:59:54.516Z,58.60
2018-09-27T20:02:24.027Z,58.50
2018-09-27T20:04:53.629Z,58.60
2018-09-27T20:07:23.255Z,58.60
2018-09-27T20:09:52.656Z,58.60
2018-09-27T20:12:22.177Z,58.40
2018-09-27T20:14:51.688Z,58.50
2018-09-27T20:17:21.115Z,58.60
2018-09-27T20:19:50.667Z,58.60
2018-09-27T20:22:20.209Z,58.70
2018-09-27T20:24:49.908Z,58.90
2018-09-27T20:27:19.366Z,59.10
2018-09-27T20:29:48.954Z,59.20
2018-09-27T20:32:18.552Z,59.40
2018-09-27T20:34:48.101Z,59.60
2018-09-27T20:37:17.592Z,59.90
2018-09-27T20:39:47.169Z,60.10
2018-09-27T20:42:17.607Z,60.40
2018-09-27T20:44:47.098Z,60.70
2018-09-27T20:47:16.683Z,60.80
2018-09-27T20:49:46.179Z,61.00
2018-09-27T20:52:15.668Z,61.20
2018-09-27T20:54:45.127Z,61.50
2018-09-27T20:57:14.542Z,61.70
2018-09-27T20:59:44.020Z,61.70
2018-09-27T21:02:13.300Z,61.70
2018-09-27T21:04:43.354Z,61.80
2018-09-27T21:07:12.744Z,62.00
2018-09-27T21:09:42.055Z,62.10
2018-09-27T21:12:11.367Z,62.10
2018-09-27T21:14:40.733Z,62.30
2018-09-27T21:17:10.112Z,63.20
2018-09-27T21:19:39.476Z,62.40
2018-09-27T21:22:08.860Z,62.30
2018-09-27T22:10:53.447Z,64.10
2018-09-27T22:13:22.791Z,64.30
2018-09-27T22:15:52.127Z,63.80
2018-09-27T22:18:21.489Z,63.60
2018-09-27T22:20:50.779Z,63.50
2018-09-27T22:23:20.160Z,63.30
2018-09-27T22:25:49.514Z,63.10
2018-09-27T22:28:18.901Z,62.60
2018-09-27T22:30:48.276Z,62.60
2018-09-27T22:33:17.628Z,62.50
2018-09-27T22:35:46.920Z,62.10
2018-09-27T22:38:16.309Z,62.10
2018-09-27T22:40:45.829Z,61.90
2018-09-27T22:43:15.204Z,61.90
2018-09-27T22:45:44.676Z,61.80
2018-09-27T22:48:14.040Z,61.60
2018-09-27T22:50:43.480Z,60.80
2018-09-27T22:53:12.809Z,60.80
2018-09-27T22:55:42.111Z,59.70
2018-09-27T22:58:11.432Z,59.60
2018-09-27T23:00:40.727Z,59.90
2018-09-27T23:03:09.956Z,60.30
2018-09-27T23:05:39.184Z,60.20
2018-09-27T23:08:08.425Z,60.20
2018-09-27T23:10:37.600Z,59.80
2018-09-27T23:13:06.823Z,60.00
2018-09-27T23:15:36.014Z,59.40
2018-09-27T23:18:05.268Z,59.50
2018-09-27T23:20:34.520Z,59.00
2018-09-27T23:23:03.784Z,59.30
2018-09-27T23:25:33.068Z,59.30
2018-09-27T23:28:02.687Z,59.20
2018-09-27T23:30:31.885Z,59.00
2018-09-27T23:33:01.123Z,59.00
2018-09-27T23:35:30.428Z,58.90
2018-09-27T23:37:59.653Z,59.10
2018-09-27T23:40:28.891Z,59.00
2018-09-27T23:42:58.301Z,58.90
2018-09-27T23:45:27.566Z,58.80
2018-09-27T23:47:56.804Z,58.90
2018-09-27T23:50:26.141Z,59.00
2018-09-27T23:52:55.405Z,59.00
2018-09-27T23:55:24.697Z,59.40
2018-09-27T23:57:53.990Z,59.30
